sensor_id;sensor_type;location;lat;lon;timestamp;P1;durP1;ratioP1;P2;durP2;ratioP2
10132;SDS011;5106;50.926;7.080;2022-11-20T00:00:09;10.80;;;8.50;;
10132;SDS011;5106;50.926;7.080;2022-11-20T00:02:35;10.27;;;8.03;;
10132;SDS011;5106;50.926;7.080;2022-11-20T00:05:00;10.80;;;7.60;;
10132;SDS011;5106;50.926;7.080;2022-11-20T00:07:26;9.87;;;7.90;;
10132;SDS011;5106;50.926;7.080;2022-11-20T00:09:51;8.63;;;7.23;;
10132;SDS011;5106;50.926;7.080;2022-11-20T00:12:17;9.63;;;8.07;;
10132;SDS011;5106;50.926;7.080;2022-11-20T00:14:42;11.17;;;8.17;;
10132;SDS011;5106;50.926;7.080;2022-11-20T00:17:08;9.33;;;7.43;;
10132;SDS011;5106;50.926;7.080;2022-11-20T00:19:34;9.70;;;7.37;;
10132;SDS011;5106;50.926;7.080;2022-11-20T00:21:59;9.03;;;7.67;;
10132;SDS011;5106;50.926;7.080;2022-11-20T00:24:25;9.97;;;7.90;;
10132;SDS011;5106;50.926;7.080;2022-11-20T00:26:50;10.17;;;8.00;;
10132;SDS011;5106;50.926;7.080;2022-11-20T00:29:16;10.23;;;8.20;;
10132;SDS011;5106;50.926;7.080;2022-11-20T00:31:42;10.00;;;7.87;;
10132;SDS011;5106;50.926;7.080;2022-11-20T00:34:08;10.07;;;7.70;;
10132;SDS011;5106;50.926;7.080;2022-11-20T00:36:34;10.23;;;7.93;;
10132;SDS011;5106;50.926;7.080;2022-11-20T00:39:00;9.40;;;7.97;;
10132;SDS011;5106;50.926;7.080;2022-11-20T00:41:26;10.97;;;7.67;;
10132;SDS011;5106;50.926;7.080;2022-11-20T00:43:53;9.70;;;7.93;;
10132;SDS011;5106;50.926;7.080;2022-11-20T00:46:21;10.93;;;8.20;;
10132;SDS011;5106;50.926;7.080;2022-11-20T00:48:48;10.13;;;8.00;;
10132;SDS011;5106;50.926;7.080;2022-11-20T00:51:14;11.60;;;8.23;;
10132;SDS011;5106;50.926;7.080;2022-11-20T00:53:42;9.37;;;7.47;;
10132;SDS011;5106;50.926;7.080;2022-11-20T00:56:09;10.87;;;8.20;;
10132;SDS011;5106;50.926;7.080;2022-11-20T00:58:38;9.30;;;7.67;;
10132;SDS011;5106;50.926;7.080;2022-11-20T01:01:06;9.80;;;7.57;;
10132;SDS011;5106;50.926;7.080;2022-11-20T01:03:40;11.13;;;7.93;;
10132;SDS011;5106;50.926;7.080;2022-11-20T01:06:09;10.63;;;7.43;;
10132;SDS011;5106;50.926;7.080;2022-11-20T01:08:57;9.23;;;7.63;;
10132;SDS011;5106;50.926;7.080;2022-11-20T01:11:26;12.17;;;8.07;;
10132;SDS011;5106;50.926;7.080;2022-11-20T01:13:53;9.50;;;7.87;;
10132;SDS011;5106;50.926;7.080;2022-11-20T01:16:24;9.90;;;7.80;;
10132;SDS011;5106;50.926;7.080;2022-11-20T01:18:52;9.30;;;7.50;;
10132;SDS011;5106;50.926;7.080;2022-11-20T01:21:21;9.93;;;8.30;;
10132;SDS011;5106;50.926;7.080;2022-11-20T01:23:49;9.93;;;7.93;;
10132;SDS011;5106;50.926;7.080;2022-11-20T01:26:16;9.43;;;7.63;;
10132;SDS011;5106;50.926;7.080;2022-11-20T01:28:45;9.53;;;7.40;;
10132;SDS011;5106;50.926;7.080;2022-11-20T01:33:51;9.57;;;7.53;;
10132;SDS011;5106;50.926;7.080;2022-11-20T01:36:19;9.43;;;7.43;;
10132;SDS011;5106;50.926;7.080;2022-11-20T01:38:46;9.27;;;7.57;;
10132;SDS011;5106;50.926;7.080;2022-11-20T01:41:12;10.47;;;7.57;;
10132;SDS011;5106;50.926;7.080;2022-11-20T01:43:58;11.17;;;7.70;;
10132;SDS011;5106;50.926;7.080;2022-11-20T01:46:24;9.20;;;7.47;;
10132;SDS011;5106;50.926;7.080;2022-11-20T01:51:28;9.53;;;7.87;;
10132;SDS011;5106;50.926;7.080;2022-11-20T01:54:05;9.93;;;7.73;;
10132;SDS011;5106;50.926;7.080;2022-11-20T01:56:34;9.20;;;7.43;;
10132;SDS011;5106;50.926;7.080;2022-11-20T01:59:04;11.47;;;8.00;;
10132;SDS011;5106;50.926;7.080;2022-11-20T02:01:32;9.87;;;7.70;;
10132;SDS011;5106;50.926;7.080;2022-11-20T02:03:58;10.17;;;8.07;;
10132;SDS011;5106;50.926;7.080;2022-11-20T02:06:29;9.50;;;7.83;;
10132;SDS011;5106;50.926;7.080;2022-11-20T02:09:00;10.00;;;7.57;;
10132;SDS011;5106;50.926;7.080;2022-11-20T02:11:25;10.53;;;8.03;;
10132;SDS011;5106;50.926;7.080;2022-11-20T02:13:51;8.43;;;6.80;;
10132;SDS011;5106;50.926;7.080;2022-11-20T02:16:18;11.87;;;8.10;;
10132;SDS011;5106;50.926;7.080;2022-11-20T02:18:45;9.07;;;7.37;;
10132;SDS011;5106;50.926;7.080;2022-11-20T02:21:17;8.80;;;7.20;;
10132;SDS011;5106;50.926;7.080;2022-11-20T02:26:31;9.53;;;7.70;;
10132;SDS011;5106;50.926;7.080;2022-11-20T02:29:00;9.43;;;7.83;;
10132;SDS011;5106;50.926;7.080;2022-11-20T02:31:27;10.10;;;8.10;;
10132;SDS011;5106;50.926;7.080;2022-11-20T02:33:56;10.50;;;8.27;;
10132;SDS011;5106;50.926;7.080;2022-11-20T02:36:22;9.73;;;7.53;;
10132;SDS011;5106;50.926;7.080;2022-11-20T02:38:51;10.03;;;8.00;;
10132;SDS011;5106;50.926;7.080;2022-11-20T02:41:17;9.77;;;7.20;;
10132;SDS011;5106;50.926;7.080;2022-11-20T02:43:42;9.67;;;7.47;;
10132;SDS011;5106;50.926;7.080;2022-11-20T02:46:08;8.53;;;7.43;;
10132;SDS011;5106;50.926;7.080;2022-11-20T02:48:34;10.53;;;8.10;;
10132;SDS011;5106;50.926;7.080;2022-11-20T02:50:59;10.20;;;8.00;;
10132;SDS011;5106;50.926;7.080;2022-11-20T02:53:25;9.40;;;7.13;;
10132;SDS011;5106;50.926;7.080;2022-11-20T02:55:51;9.17;;;7.47;;
10132;SDS011;5106;50.926;7.080;2022-11-20T02:58:16;9.70;;;7.87;;
10132;SDS011;5106;50.926;7.080;2022-11-20T03:00:42;9.90;;;8.07;;
10132;SDS011;5106;50.926;7.080;2022-11-20T03:03:07;9.33;;;7.40;;
10132;SDS011;5106;50.926;7.080;2022-11-20T03:05:33;10.57;;;8.10;;
10132;SDS011;5106;50.926;7.080;2022-11-20T03:07:59;10.10;;;7.77;;
10132;SDS011;5106;50.926;7.080;2022-11-20T03:10:24;9.77;;;7.57;;
10132;SDS011;5106;50.926;7.080;2022-11-20T03:12:56;11.73;;;7.80;;
10132;SDS011;5106;50.926;7.080;2022-11-20T03:15:25;11.33;;;8.37;;
10132;SDS011;5106;50.926;7.080;2022-11-20T03:17:53;10.40;;;7.70;;
10132;SDS011;5106;50.926;7.080;2022-11-20T03:20:20;10.80;;;8.50;;
10132;SDS011;5106;50.926;7.080;2022-11-20T03:22:45;10.30;;;8.27;;
10132;SDS011;5106;50.926;7.080;2022-11-20T03:25:11;10.10;;;8.07;;
10132;SDS011;5106;50.926;7.080;2022-11-20T03:27:36;9.60;;;7.70;;
10132;SDS011;5106;50.926;7.080;2022-11-20T03:30:02;10.47;;;8.20;;
10132;SDS011;5106;50.926;7.080;2022-11-20T03:32:28;9.07;;;7.30;;
10132;SDS011;5106;50.926;7.080;2022-11-20T03:34:54;10.13;;;7.97;;
10132;SDS011;5106;50.926;7.080;2022-11-20T03:37:20;8.73;;;7.70;;
10132;SDS011;5106;50.926;7.080;2022-11-20T03:39:45;10.00;;;7.63;;
10132;SDS011;5106;50.926;7.080;2022-11-20T03:42:11;10.47;;;8.30;;
10132;SDS011;5106;50.926;7.080;2022-11-20T03:44:55;11.50;;;8.43;;
10132;SDS011;5106;50.926;7.080;2022-11-20T03:47:20;9.90;;;7.83;;
10132;SDS011;5106;50.926;7.080;2022-11-20T03:49:46;9.50;;;8.30;;
10132;SDS011;5106;50.926;7.080;2022-11-20T03:52:12;9.33;;;7.00;;
10132;SDS011;5106;50.926;7.080;2022-11-20T03:54:37;10.20;;;7.90;;
10132;SDS011;5106;50.926;7.080;2022-11-20T03:57:03;9.40;;;7.70;;
10132;SDS011;5106;50.926;7.080;2022-11-20T03:59:28;11.73;;;8.57;;
10132;SDS011;5106;50.926;7.080;2022-11-20T04:01:54;10.77;;;8.13;;
10132;SDS011;5106;50.926;7.080;2022-11-20T04:04:20;10.97;;;8.27;;
10132;SDS011;5106;50.926;7.080;2022-11-20T04:06:45;10.60;;;7.73;;
10132;SDS011;5106;50.926;7.080;2022-11-20T04:09:11;10.17;;;7.80;;
10132;SDS011;5106;50.926;7.080;2022-11-20T04:11:39;10.63;;;7.87;;
10132;SDS011;5106;50.926;7.080;2022-11-20T04:14:05;10.67;;;8.13;;
10132;SDS011;5106;50.926;7.080;2022-11-20T04:16:36;10.50;;;7.83;;
10132;SDS011;5106;50.926;7.080;2022-11-20T04:19:03;9.90;;;7.80;;
10132;SDS011;5106;50.926;7.080;2022-11-20T04:21:30;11.23;;;7.90;;
10132;SDS011;5106;50.926;7.080;2022-11-20T04:23:56;12.17;;;9.20;;
10132;SDS011;5106;50.926;7.080;2022-11-20T04:26:23;10.87;;;8.37;;
10132;SDS011;5106;50.926;7.080;2022-11-20T04:28:50;11.03;;;8.67;;
10132;SDS011;5106;50.926;7.080;2022-11-20T04:31:16;10.93;;;8.33;;
10132;SDS011;5106;50.926;7.080;2022-11-20T04:33:43;10.57;;;8.43;;
10132;SDS011;5106;50.926;7.080;2022-11-20T04:36:16;11.50;;;8.73;;
10132;SDS011;5106;50.926;7.080;2022-11-20T04:38:53;11.30;;;8.30;;
10132;SDS011;5106;50.926;7.080;2022-11-20T04:41:20;12.80;;;8.80;;
10132;SDS011;5106;50.926;7.080;2022-11-20T04:43:48;10.50;;;7.67;;
10132;SDS011;5106;50.926;7.080;2022-11-20T04:46:15;10.00;;;8.47;;
10132;SDS011;5106;50.926;7.080;2022-11-20T04:48:41;10.10;;;7.50;;
10132;SDS011;5106;50.926;7.080;2022-11-20T04:51:07;10.70;;;8.40;;
10132;SDS011;5106;50.926;7.080;2022-11-20T04:53:33;10.00;;;7.90;;
10132;SDS011;5106;50.926;7.080;2022-11-20T04:56:02;11.53;;;8.70;;
10132;SDS011;5106;50.926;7.080;2022-11-20T04:58:30;10.40;;;8.60;;
10132;SDS011;5106;50.926;7.080;2022-11-20T05:01:12;9.77;;;7.77;;
10132;SDS011;5106;50.926;7.080;2022-11-20T05:03:39;13.07;;;7.57;;
10132;SDS011;5106;50.926;7.080;2022-11-20T05:06:06;10.53;;;8.20;;
10132;SDS011;5106;50.926;7.080;2022-11-20T05:08:32;10.57;;;7.87;;
10132;SDS011;5106;50.926;7.080;2022-11-20T05:11:08;10.57;;;8.47;;
10132;SDS011;5106;50.926;7.080;2022-11-20T05:13:34;10.10;;;7.57;;
10132;SDS011;5106;50.926;7.080;2022-11-20T05:16:07;10.23;;;7.83;;
10132;SDS011;5106;50.926;7.080;2022-11-20T05:18:34;11.57;;;8.03;;
10132;SDS011;5106;50.926;7.080;2022-11-20T05:21:01;10.30;;;7.50;;
10132;SDS011;5106;50.926;7.080;2022-11-20T05:23:27;11.03;;;8.60;;
10132;SDS011;5106;50.926;7.080;2022-11-20T05:25:54;10.80;;;8.00;;
10132;SDS011;5106;50.926;7.080;2022-11-20T05:28:21;11.00;;;8.07;;
10132;SDS011;5106;50.926;7.080;2022-11-20T05:30:47;10.60;;;7.77;;
10132;SDS011;5106;50.926;7.080;2022-11-20T05:33:13;11.63;;;8.17;;
10132;SDS011;5106;50.926;7.080;2022-11-20T05:35:39;10.60;;;8.27;;
10132;SDS011;5106;50.926;7.080;2022-11-20T05:38:04;10.77;;;8.10;;
10132;SDS011;5106;50.926;7.080;2022-11-20T05:40:30;10.90;;;8.27;;
10132;SDS011;5106;50.926;7.080;2022-11-20T05:42:55;13.10;;;8.63;;
10132;SDS011;5106;50.926;7.080;2022-11-20T05:45:21;12.03;;;8.43;;
10132;SDS011;5106;50.926;7.080;2022-11-20T05:47:47;10.07;;;7.83;;
10132;SDS011;5106;50.926;7.080;2022-11-20T05:50:13;10.63;;;8.13;;
10132;SDS011;5106;50.926;7.080;2022-11-20T05:52:39;11.50;;;8.37;;
10132;SDS011;5106;50.926;7.080;2022-11-20T05:55:05;10.43;;;8.03;;
10132;SDS011;5106;50.926;7.080;2022-11-20T05:57:32;11.17;;;8.23;;
10132;SDS011;5106;50.926;7.080;2022-11-20T05:59:57;10.53;;;8.10;;
10132;SDS011;5106;50.926;7.080;2022-11-20T06:02:23;11.43;;;8.60;;
10132;SDS011;5106;50.926;7.080;2022-11-20T06:04:49;11.13;;;8.07;;
10132;SDS011;5106;50.926;7.080;2022-11-20T06:07:14;9.90;;;8.10;;
10132;SDS011;5106;50.926;7.080;2022-11-20T06:09:40;11.27;;;8.13;;
10132;SDS011;5106;50.926;7.080;2022-11-20T06:12:06;10.97;;;8.90;;
10132;SDS011;5106;50.926;7.080;2022-11-20T06:14:32;11.03;;;8.43;;
10132;SDS011;5106;50.926;7.080;2022-11-20T06:16:58;11.20;;;9.00;;
10132;SDS011;5106;50.926;7.080;2022-11-20T06:19:23;10.23;;;8.30;;
10132;SDS011;5106;50.926;7.080;2022-11-20T06:21:49;10.30;;;7.97;;
10132;SDS011;5106;50.926;7.080;2022-11-20T06:24:15;10.37;;;8.30;;
10132;SDS011;5106;50.926;7.080;2022-11-20T06:26:41;11.17;;;9.07;;
10132;SDS011;5106;50.926;7.080;2022-11-20T06:29:06;13.50;;;9.20;;
10132;SDS011;5106;50.926;7.080;2022-11-20T06:31:32;11.33;;;9.13;;
10132;SDS011;5106;50.926;7.080;2022-11-20T06:33:59;11.67;;;9.47;;
10132;SDS011;5106;50.926;7.080;2022-11-20T06:36:25;12.17;;;8.73;;
10132;SDS011;5106;50.926;7.080;2022-11-20T06:38:51;12.57;;;8.90;;
10132;SDS011;5106;50.926;7.080;2022-11-20T06:41:20;12.63;;;8.97;;
10132;SDS011;5106;50.926;7.080;2022-11-20T06:43:46;11.23;;;8.53;;
10132;SDS011;5106;50.926;7.080;2022-11-20T06:46:13;11.60;;;8.77;;
10132;SDS011;5106;50.926;7.080;2022-11-20T06:48:39;11.93;;;8.33;;
10132;SDS011;5106;50.926;7.080;2022-11-20T06:51:06;11.93;;;8.93;;
10132;SDS011;5106;50.926;7.080;2022-11-20T06:53:32;12.37;;;9.13;;
10132;SDS011;5106;50.926;7.080;2022-11-20T06:55:58;10.90;;;8.70;;
10132;SDS011;5106;50.926;7.080;2022-11-20T06:58:26;11.87;;;8.57;;
10132;SDS011;5106;50.926;7.080;2022-11-20T07:00:53;12.67;;;8.97;;
10132;SDS011;5106;50.926;7.080;2022-11-20T07:03:22;12.67;;;8.83;;
10132;SDS011;5106;50.926;7.080;2022-11-20T07:05:48;10.43;;;8.53;;
10132;SDS011;5106;50.926;7.080;2022-11-20T07:08:13;11.00;;;8.93;;
10132;SDS011;5106;50.926;7.080;2022-11-20T07:10:39;11.00;;;8.73;;
10132;SDS011;5106;50.926;7.080;2022-11-20T07:13:04;12.80;;;8.90;;
10132;SDS011;5106;50.926;7.080;2022-11-20T07:15:31;11.87;;;9.00;;
10132;SDS011;5106;50.926;7.080;2022-11-20T07:18:00;13.07;;;8.70;;
10132;SDS011;5106;50.926;7.080;2022-11-20T07:20:26;12.80;;;9.77;;
10132;SDS011;5106;50.926;7.080;2022-11-20T07:22:53;12.43;;;9.20;;
10132;SDS011;5106;50.926;7.080;2022-11-20T07:25:19;12.40;;;9.23;;
10132;SDS011;5106;50.926;7.080;2022-11-20T07:27:45;13.43;;;9.43;;
10132;SDS011;5106;50.926;7.080;2022-11-20T07:30:11;11.77;;;9.20;;
10132;SDS011;5106;50.926;7.080;2022-11-20T07:32:37;12.00;;;9.20;;
10132;SDS011;5106;50.926;7.080;2022-11-20T07:35:02;13.27;;;9.87;;
10132;SDS011;5106;50.926;7.080;2022-11-20T07:37:28;12.43;;;9.47;;
10132;SDS011;5106;50.926;7.080;2022-11-20T07:39:54;14.67;;;10.83;;
10132;SDS011;5106;50.926;7.080;2022-11-20T07:42:19;13.77;;;9.33;;
10132;SDS011;5106;50.926;7.080;2022-11-20T07:44:45;13.30;;;9.63;;
10132;SDS011;5106;50.926;7.080;2022-11-20T07:47:10;16.50;;;10.37;;
10132;SDS011;5106;50.926;7.080;2022-11-20T07:49:36;14.53;;;10.43;;
10132;SDS011;5106;50.926;7.080;2022-11-20T07:52:02;14.40;;;10.07;;
10132;SDS011;5106;50.926;7.080;2022-11-20T07:54:27;15.07;;;10.20;;
10132;SDS011;5106;50.926;7.080;2022-11-20T07:56:53;12.83;;;9.47;;
10132;SDS011;5106;50.926;7.080;2022-11-20T07:59:19;13.00;;;10.07;;
10132;SDS011;5106;50.926;7.080;2022-11-20T08:01:44;15.33;;;10.70;;
10132;SDS011;5106;50.926;7.080;2022-11-20T08:04:10;14.20;;;10.40;;
10132;SDS011;5106;50.926;7.080;2022-11-20T08:06:36;13.43;;;10.10;;
10132;SDS011;5106;50.926;7.080;2022-11-20T08:09:02;15.17;;;10.57;;
10132;SDS011;5106;50.926;7.080;2022-11-20T08:11:28;14.10;;;10.17;;
10132;SDS011;5106;50.926;7.080;2022-11-20T08:14:12;13.53;;;10.27;;
10132;SDS011;5106;50.926;7.080;2022-11-20T08:16:38;12.63;;;9.77;;
10132;SDS011;5106;50.926;7.080;2022-11-20T08:19:15;14.23;;;10.40;;
10132;SDS011;5106;50.926;7.080;2022-11-20T08:21:42;11.93;;;9.03;;
10132;SDS011;5106;50.926;7.080;2022-11-20T08:24:09;13.60;;;10.23;;
10132;SDS011;5106;50.926;7.080;2022-11-20T08:26:35;14.40;;;10.07;;
10132;SDS011;5106;50.926;7.080;2022-11-20T08:29:02;12.27;;;9.43;;
10132;SDS011;5106;50.926;7.080;2022-11-20T08:31:29;17.80;;;11.53;;
10132;SDS011;5106;50.926;7.080;2022-11-20T08:33:55;14.27;;;10.93;;
10132;SDS011;5106;50.926;7.080;2022-11-20T08:36:21;13.90;;;10.70;;
10132;SDS011;5106;50.926;7.080;2022-11-20T08:38:51;14.73;;;11.27;;
10132;SDS011;5106;50.926;7.080;2022-11-20T08:41:18;16.20;;;10.90;;
10132;SDS011;5106;50.926;7.080;2022-11-20T08:46:38;13.07;;;10.23;;
10132;SDS011;5106;50.926;7.080;2022-11-20T08:49:06;14.33;;;10.67;;
10132;SDS011;5106;50.926;7.080;2022-11-20T08:51:34;13.40;;;10.50;;
10132;SDS011;5106;50.926;7.080;2022-11-20T08:54:00;15.30;;;10.47;;
10132;SDS011;5106;50.926;7.080;2022-11-20T08:56:26;14.30;;;11.37;;
10132;SDS011;5106;50.926;7.080;2022-11-20T08:58:52;15.23;;;11.70;;
10132;SDS011;5106;50.926;7.080;2022-11-20T09:01:18;15.57;;;10.90;;
10132;SDS011;5106;50.926;7.080;2022-11-20T09:03:45;15.47;;;11.40;;
10132;SDS011;5106;50.926;7.080;2022-11-20T09:06:10;15.40;;;11.43;;
10132;SDS011;5106;50.926;7.080;2022-11-20T09:08:36;15.20;;;11.53;;
10132;SDS011;5106;50.926;7.080;2022-11-20T09:11:02;14.37;;;10.97;;
10132;SDS011;5106;50.926;7.080;2022-11-20T09:13:29;13.30;;;10.73;;
10132;SDS011;5106;50.926;7.080;2022-11-20T09:15:56;14.97;;;11.20;;
10132;SDS011;5106;50.926;7.080;2022-11-20T09:18:27;14.43;;;10.53;;
10132;SDS011;5106;50.926;7.080;2022-11-20T09:20:59;13.37;;;10.23;;
10132;SDS011;5106;50.926;7.080;2022-11-20T09:23:26;13.50;;;10.33;;
10132;SDS011;5106;50.926;7.080;2022-11-20T09:25:55;15.43;;;11.27;;
10132;SDS011;5106;50.926;7.080;2022-11-20T09:28:24;14.43;;;11.33;;
10132;SDS011;5106;50.926;7.080;2022-11-20T09:30:50;14.80;;;11.27;;
10132;SDS011;5106;50.926;7.080;2022-11-20T09:33:16;16.40;;;10.87;;
10132;SDS011;5106;50.926;7.080;2022-11-20T09:35:42;14.57;;;11.10;;
10132;SDS011;5106;50.926;7.080;2022-11-20T09:38:09;13.33;;;10.10;;
10132;SDS011;5106;50.926;7.080;2022-11-20T09:40:36;15.73;;;10.90;;
10132;SDS011;5106;50.926;7.080;2022-11-20T09:43:17;14.70;;;11.47;;
10132;SDS011;5106;50.926;7.080;2022-11-20T09:56:26;14.80;;;11.07;;
10132;SDS011;5106;50.926;7.080;2022-11-20T09:58:57;14.63;;;11.07;;
10132;SDS011;5106;50.926;7.080;2022-11-20T10:01:29;13.63;;;10.63;;
10132;SDS011;5106;50.926;7.080;2022-11-20T10:04:02;14.30;;;11.27;;
10132;SDS011;5106;50.926;7.080;2022-11-20T10:09:31;14.70;;;11.20;;
10132;SDS011;5106;50.926;7.080;2022-11-20T10:17:54;14.23;;;10.83;;
10132;SDS011;5106;50.926;7.080;2022-11-20T10:26:16;13.97;;;10.33;;
10132;SDS011;5106;50.926;7.080;2022-11-20T10:31:40;15.17;;;11.20;;
10132;SDS011;5106;50.926;7.080;2022-11-20T10:34:07;15.60;;;11.53;;
10132;SDS011;5106;50.926;7.080;2022-11-20T10:36:58;14.37;;;11.13;;
10132;SDS011;5106;50.926;7.080;2022-11-20T10:42:43;16.33;;;11.67;;
10132;SDS011;5106;50.926;7.080;2022-11-20T10:48:07;16.80;;;11.90;;
10132;SDS011;5106;50.926;7.080;2022-11-20T10:50:40;16.23;;;12.40;;
10132;SDS011;5106;50.926;7.080;2022-11-20T10:53:19;16.27;;;12.27;;
10132;SDS011;5106;50.926;7.080;2022-11-20T11:01:39;19.17;;;12.70;;
10132;SDS011;5106;50.926;7.080;2022-11-20T11:09:39;15.40;;;11.50;;
10132;SDS011;5106;50.926;7.080;2022-11-20T11:12:08;17.50;;;12.03;;
10132;SDS011;5106;50.926;7.080;2022-11-20T11:14:51;15.43;;;11.80;;
10132;SDS011;5106;50.926;7.080;2022-11-20T11:17:45;16.87;;;11.73;;
10132;SDS011;5106;50.926;7.080;2022-11-20T11:22:46;16.70;;;11.43;;
10132;SDS011;5106;50.926;7.080;2022-11-20T11:25:55;15.77;;;11.10;;
10132;SDS011;5106;50.926;7.080;2022-11-20T11:30:43;15.40;;;11.77;;
10132;SDS011;5106;50.926;7.080;2022-11-20T11:33:11;15.17;;;10.97;;
10132;SDS011;5106;50.926;7.080;2022-11-20T11:35:45;14.17;;;11.13;;
10132;SDS011;5106;50.926;7.080;2022-11-20T11:38:14;16.10;;;11.33;;
10132;SDS011;5106;50.926;7.080;2022-11-20T11:40:44;16.50;;;11.47;;
10132;SDS011;5106;50.926;7.080;2022-11-20T11:43:19;15.10;;;11.37;;
10132;SDS011;5106;50.926;7.080;2022-11-20T11:46:22;15.93;;;11.37;;
10132;SDS011;5106;50.926;7.080;2022-11-20T11:48:58;16.20;;;11.27;;
10132;SDS011;5106;50.926;7.080;2022-11-20T11:54:40;13.90;;;10.13;;
10132;SDS011;5106;50.926;7.080;2022-11-20T11:57:10;14.50;;;10.90;;
10132;SDS011;5106;50.926;7.080;2022-11-20T11:59:54;16.03;;;11.03;;
10132;SDS011;5106;50.926;7.080;2022-11-20T12:02:35;16.10;;;11.53;;
10132;SDS011;5106;50.926;7.080;2022-11-20T12:05:28;16.17;;;11.60;;
10132;SDS011;5106;50.926;7.080;2022-11-20T12:16:38;15.23;;;11.07;;
10132;SDS011;5106;50.926;7.080;2022-11-20T12:19:08;14.63;;;10.67;;
10132;SDS011;5106;50.926;7.080;2022-11-20T12:35:37;15.70;;;10.63;;
10132;SDS011;5106;50.926;7.080;2022-11-20T12:41:06;15.60;;;10.97;;
10132;SDS011;5106;50.926;7.080;2022-11-20T12:49:56;15.03;;;10.97;;
10132;SDS011;5106;50.926;7.080;2022-11-20T13:01:58;13.47;;;9.63;;
10132;SDS011;5106;50.926;7.080;2022-11-20T13:05:02;13.50;;;10.53;;
10132;SDS011;5106;50.926;7.080;2022-11-20T13:07:49;14.03;;;10.57;;
10132;SDS011;5106;50.926;7.080;2022-11-20T13:10:21;16.33;;;11.10;;
10132;SDS011;5106;50.926;7.080;2022-11-20T13:18:34;14.03;;;10.20;;
10132;SDS011;5106;50.926;7.080;2022-11-20T13:21:14;13.07;;;9.87;;
10132;SDS011;5106;50.926;7.080;2022-11-20T13:23:45;14.53;;;10.50;;
10132;SDS011;5106;50.926;7.080;2022-11-20T13:26:15;14.53;;;10.13;;
10132;SDS011;5106;50.926;7.080;2022-11-20T13:28:44;14.07;;;10.07;;
10132;SDS011;5106;50.926;7.080;2022-11-20T13:31:27;15.50;;;10.17;;
10132;SDS011;5106;50.926;7.080;2022-11-20T13:33:57;14.80;;;10.10;;
10132;SDS011;5106;50.926;7.080;2022-11-20T13:36:26;14.00;;;10.53;;
10132;SDS011;5106;50.926;7.080;2022-11-20T13:38:54;13.40;;;9.60;;
10132;SDS011;5106;50.926;7.080;2022-11-20T13:41:34;12.63;;;9.67;;
10132;SDS011;5106;50.926;7.080;2022-11-20T13:46:37;13.73;;;10.07;;
10132;SDS011;5106;50.926;7.080;2022-11-20T13:49:09;13.77;;;10.07;;
10132;SDS011;5106;50.926;7.080;2022-11-20T13:51:48;14.93;;;9.80;;
10132;SDS011;5106;50.926;7.080;2022-11-20T14:02:23;12.90;;;10.07;;
10132;SDS011;5106;50.926;7.080;2022-11-20T14:04:53;14.50;;;10.20;;
10132;SDS011;5106;50.926;7.080;2022-11-20T14:07:21;12.40;;;9.90;;
10132;SDS011;5106;50.926;7.080;2022-11-20T14:09:51;13.60;;;10.23;;
10132;SDS011;5106;50.926;7.080;2022-11-20T14:12:22;13.70;;;10.47;;
10132;SDS011;5106;50.926;7.080;2022-11-20T14:14:59;13.97;;;9.93;;
10132;SDS011;5106;50.926;7.080;2022-11-20T14:17:32;15.10;;;11.10;;
10132;SDS011;5106;50.926;7.080;2022-11-20T14:20:06;14.30;;;10.20;;
10132;SDS011;5106;50.926;7.080;2022-11-20T14:22:37;14.00;;;10.43;;
10132;SDS011;5106;50.926;7.080;2022-11-20T14:27:37;13.87;;;9.87;;
10132;SDS011;5106;50.926;7.080;2022-11-20T14:30:05;15.30;;;10.00;;
10132;SDS011;5106;50.926;7.080;2022-11-20T14:32:38;14.33;;;10.37;;
10132;SDS011;5106;50.926;7.080;2022-11-20T14:35:06;12.70;;;9.53;;
10132;SDS011;5106;50.926;7.080;2022-11-20T14:37:36;15.30;;;10.83;;
10132;SDS011;5106;50.926;7.080;2022-11-20T14:42:49;13.50;;;10.47;;
10132;SDS011;5106;50.926;7.080;2022-11-20T14:45:14;13.03;;;9.87;;
10132;SDS011;5106;50.926;7.080;2022-11-20T14:47:41;15.23;;;10.93;;
10132;SDS011;5106;50.926;7.080;2022-11-20T14:50:18;18.17;;;10.83;;
10132;SDS011;5106;50.926;7.080;2022-11-20T14:52:50;14.50;;;10.80;;
10132;SDS011;5106;50.926;7.080;2022-11-20T14:57:58;13.27;;;9.77;;
10132;SDS011;5106;50.926;7.080;2022-11-20T15:00:26;14.17;;;10.17;;
10132;SDS011;5106;50.926;7.080;2022-11-20T15:02:52;14.60;;;9.97;;
10132;SDS011;5106;50.926;7.080;2022-11-20T15:05:19;14.30;;;10.77;;
10132;SDS011;5106;50.926;7.080;2022-11-20T15:07:52;13.67;;;10.27;;
10132;SDS011;5106;50.926;7.080;2022-11-20T15:10:30;14.73;;;10.77;;
10132;SDS011;5106;50.926;7.080;2022-11-20T15:13:00;15.53;;;11.20;;
10132;SDS011;5106;50.926;7.080;2022-11-20T15:18:13;16.30;;;11.97;;
10132;SDS011;5106;50.926;7.080;2022-11-20T15:20:41;14.40;;;10.30;;
10132;SDS011;5106;50.926;7.080;2022-11-20T15:23:11;14.90;;;10.43;;
10132;SDS011;5106;50.926;7.080;2022-11-20T15:25:39;13.17;;;10.17;;
10132;SDS011;5106;50.926;7.080;2022-11-20T15:28:09;14.83;;;10.40;;
10132;SDS011;5106;50.926;7.080;2022-11-20T15:30:44;16.37;;;10.67;;
10132;SDS011;5106;50.926;7.080;2022-11-20T15:33:12;16.00;;;10.33;;
10132;SDS011;5106;50.926;7.080;2022-11-20T15:35:38;15.47;;;10.70;;
10132;SDS011;5106;50.926;7.080;2022-11-20T15:38:03;13.07;;;9.80;;
10132;SDS011;5106;50.926;7.080;2022-11-20T15:40:29;13.80;;;10.37;;
10132;SDS011;5106;50.926;7.080;2022-11-20T15:42:55;15.93;;;10.33;;
10132;SDS011;5106;50.926;7.080;2022-11-20T15:45:45;14.40;;;10.53;;
10132;SDS011;5106;50.926;7.080;2022-11-20T15:48:16;15.07;;;9.47;;
10132;SDS011;5106;50.926;7.080;2022-11-20T15:51:21;12.67;;;9.67;;
10132;SDS011;5106;50.926;7.080;2022-11-20T15:53:36;11.63;;;9.13;;
10132;SDS011;5106;50.926;7.080;2022-11-20T15:56:03;18.40;;;10.60;;
10132;SDS011;5106;50.926;7.080;2022-11-20T15:58:29;12.77;;;9.83;;
10132;SDS011;5106;50.926;7.080;2022-11-20T16:00:54;15.87;;;10.33;;
10132;SDS011;5106;50.926;7.080;2022-11-20T16:03:20;13.43;;;9.70;;
10132;SDS011;5106;50.926;7.080;2022-11-20T16:05:46;13.77;;;9.33;;
10132;SDS011;5106;50.926;7.080;2022-11-20T16:08:12;14.73;;;9.87;;
10132;SDS011;5106;50.926;7.080;2022-11-20T16:10:38;16.07;;;9.90;;
10132;SDS011;5106;50.926;7.080;2022-11-20T16:13:03;12.60;;;9.23;;
10132;SDS011;5106;50.926;7.080;2022-11-20T16:15:52;13.60;;;10.00;;
10132;SDS011;5106;50.926;7.080;2022-11-20T16:18:22;15.53;;;9.87;;
10132;SDS011;5106;50.926;7.080;2022-11-20T16:20:48;16.77;;;9.67;;
10132;SDS011;5106;50.926;7.080;2022-11-20T16:23:15;15.17;;;9.53;;
10132;SDS011;5106;50.926;7.080;2022-11-20T16:25:42;15.97;;;9.10;;
10132;SDS011;5106;50.926;7.080;2022-11-20T16:28:08;12.17;;;9.40;;
10132;SDS011;5106;50.926;7.080;2022-11-20T16:30:34;11.43;;;8.90;;
10132;SDS011;5106;50.926;7.080;2022-11-20T16:33:00;13.97;;;9.67;;
10132;SDS011;5106;50.926;7.080;2022-11-20T16:35:27;11.20;;;9.00;;
10132;SDS011;5106;50.926;7.080;2022-11-20T16:37:54;14.37;;;8.60;;
10132;SDS011;5106;50.926;7.080;2022-11-20T16:40:20;12.87;;;8.73;;
10132;SDS011;5106;50.926;7.080;2022-11-20T16:42:47;14.33;;;9.10;;
10132;SDS011;5106;50.926;7.080;2022-11-20T16:45:13;13.67;;;8.70;;
10132;SDS011;5106;50.926;7.080;2022-11-20T16:47:40;11.63;;;7.97;;
10132;SDS011;5106;50.926;7.080;2022-11-20T16:50:05;11.27;;;7.87;;
10132;SDS011;5106;50.926;7.080;2022-11-20T16:52:31;10.73;;;7.50;;
10132;SDS011;5106;50.926;7.080;2022-11-20T16:54:57;11.77;;;7.23;;
10132;SDS011;5106;50.926;7.080;2022-11-20T16:57:23;9.27;;;7.07;;
10132;SDS011;5106;50.926;7.080;2022-11-20T16:59:51;9.63;;;6.80;;
10132;SDS011;5106;50.926;7.080;2022-11-20T17:02:17;10.20;;;6.37;;
10132;SDS011;5106;50.926;7.080;2022-11-20T17:04:42;7.97;;;6.23;;
10132;SDS011;5106;50.926;7.080;2022-11-20T17:07:08;9.90;;;5.60;;